Time;durP1;ratioP1;P1;durP2;ratioP2;P2;SDS_P1;SDS_P2;PMS_P1;PMS_P2;Temp;Humidity;BMP_temperature;BMP_pressure;BME280_temperature;BME280_humidity;BME280_pressure;Samples;Min_cycle;Max_cycle;Signal;HPM_P1;HPM_P2
2023/03/30 00:02:21;;;;;;;0.50;0.50;;;;;;;-0.52;93.83;100034.13;5045387;28;20060;-65
2023/03/30 00:04:48;;;;;;;0.60;0.60;;;;;;;-0.49;93.75;100030.78;5045674;28;20024;-66
2023/03/30 00:07:14;;;;;;;0.50;0.50;;;;;;;-0.47;93.44;100026.63;5045313;28;20032;-65
2023/03/30 00:09:42;;;;;;;0.57;0.57;;;;;;;-0.53;93.66;100021.34;5045040;28;20017;-65
2023/03/30 00:12:10;;;;;;;0.50;0.50;;;;;;;-0.46;93.63;100020.69;5044825;28;20032;-65
2023/03/30 00:14:40;;;;;;;0.40;0.40;;;;;;;-0.48;93.44;100031.66;5045287;28;20025;-66
2023/03/30 00:17:06;;;;;;;0.60;0.60;;;;;;;-0.41;92.90;100025.91;5044883;28;20049;-65
2023/03/30 00:19:32;;;;;;;0.50;0.50;;;;;;;-0.47;93.13;100025.75;5044010;28;20036;-65
2023/03/30 00:21:57;;;;;;;0.50;0.50;;;;;;;-0.40;92.71;100022.56;5044877;28;20018;-65
2023/03/30 00:24:23;;;;;;;0.50;0.50;;;;;;;-0.47;93.05;100020.63;5045168;28;20025;-65
2023/03/30 00:26:48;;;;;;;0.57;0.57;;;;;;;-0.46;93.32;100019.84;5044909;28;20030;-66
2023/03/30 00:29:14;;;;;;;0.50;0.50;;;;;;;-0.44;93.34;100013.06;5045145;28;20025;-65
2023/03/30 00:31:39;;;;;;;0.60;0.60;;;;;;;-0.42;92.94;100009.78;5044953;28;20024;-66
2023/03/30 00:34:05;;;;;;;0.60;0.60;;;;;;;-0.33;92.27;100008.28;5045027;28;20051;-65
2023/03/30 00:36:35;;;;;;;0.50;0.50;;;;;;;-0.40;92.48;100002.16;5044976;28;20081;-66
2023/03/30 00:39:05;;;;;;;0.50;0.50;;;;;;;-0.40;92.48;99992.81;5044193;28;20013;-66
2023/03/30 00:41:32;;;;;;;0.50;0.50;;;;;;;-0.41;92.63;100001.28;5043252;28;20405;-65
2023/03/30 00:44:05;;;;;;;0.50;0.50;;;;;;;-0.44;92.67;99988.44;5044789;28;20029;-65
2023/03/30 00:46:32;;;;;;;0.50;0.50;;;;;;;-0.44;92.89;99990.13;5043463;28;20030;-65
2023/03/30 00:49:03;;;;;;;0.50;0.50;;;;;;;-0.41;92.79;99977.47;5044563;28;20048;-66
2023/03/30 00:51:31;;;;;;;0.60;0.60;;;;;;;-0.45;92.71;99979.06;5044818;28;20032;-66
2023/03/30 00:54:06;;;;;;;0.50;0.50;;;;;;;-0.51;92.61;99974.63;5044745;28;20160;-64
2023/03/30 00:56:32;;;;;;;0.60;0.60;;;;;;;-0.45;92.50;99983.31;5044715;28;20075;-64
2023/03/30 00:59:00;;;;;;;0.50;0.50;;;;;;;-0.44;92.07;99974.81;5044836;28;20018;-65
2023/03/30 01:01:27;;;;;;;0.60;0.60;;;;;;;-0.45;92.21;99984.19;5044809;28;20034;-65
2023/03/30 01:03:56;;;;;;;0.63;0.63;;;;;;;-0.37;91.77;99974.19;5044852;28;20025;-65
2023/03/30 01:06:24;;;;;;;0.50;0.50;;;;;;;-0.41;91.86;99980.88;5044774;28;20025;-65
2023/03/30 01:08:51;;;;;;;0.60;0.60;;;;;;;-0.42;92.19;99974.06;5044472;28;20029;-65
2023/03/30 01:11:17;;;;;;;0.50;0.50;;;;;;;-0.42;92.25;99970.63;5044281;28;20030;-65
2023/03/30 01:13:46;;;;;;;0.60;0.60;;;;;;;-0.44;92.34;99972.28;5044768;28;20036;-66
2023/03/30 01:16:30;;;;;;;0.60;0.60;;;;;;;-0.44;92.52;99968.03;5044643;28;20099;-66
2023/03/30 01:19:02;;;;;;;0.50;0.50;;;;;;;-0.43;92.71;99967.22;5044937;28;20085;-65
2023/03/30 01:21:58;;;;;;;0.60;0.60;;;;;;;-0.42;92.60;99976.63;5044998;28;20139;-66
2023/03/30 01:24:48;;;;;;;0.60;0.60;;;;;;;-0.36;92.44;99975.91;5044849;28;20370;-65
2023/03/30 01:28:00;;;;;;;0.60;0.60;;;;;;;-0.37;92.45;99961.44;5044554;28;20028;-66
2023/03/30 01:30:36;;;;;;;0.60;0.60;;;;;;;-0.37;92.59;99971.66;5042077;28;20061;-67
2023/03/30 01:33:22;;;;;;;0.60;0.60;;;;;;;-0.40;92.46;99974.09;5042191;28;20033;-65
2023/03/30 01:35:51;;;;;;;0.50;0.50;;;;;;;-0.43;92.61;99959.56;5042434;28;20460;-65
2023/03/30 01:38:20;;;;;;;0.68;0.68;;;;;;;-0.40;92.35;99963.91;5042304;28;20121;-65
2023/03/30 01:41:28;;;;;;;0.60;0.60;;;;;;;-0.45;92.33;99961.22;5025375;28;20037;-64
2023/03/30 01:43:56;;;;;;;0.50;0.50;;;;;;;-0.43;92.03;99961.28;5042185;28;20041;-65
2023/03/30 01:46:39;;;;;;;0.60;0.60;;;;;;;-0.46;91.94;99953.53;5041944;28;20037;-64
2023/03/30 01:49:35;;;;;;;0.60;0.60;;;;;;;-0.46;92.04;99951.81;5043261;28;20029;-65
2023/03/30 01:52:17;;;;;;;0.60;0.60;;;;;;;-0.44;91.60;99946.75;5028482;28;20037;-64
2023/03/30 01:55:00;;;;;;;0.70;0.70;;;;;;;-0.53;91.47;99943.13;5045534;28;20055;-64
2023/03/30 01:57:39;;;;;;;0.50;0.50;;;;;;;-0.53;91.59;99937.19;5045382;28;20034;-65
2023/03/30 02:00:19;;;;;;;0.50;0.50;;;;;;;-0.53;91.66;99925.25;5045179;28;20041;-65
2023/03/30 02:02:51;;;;;;;0.50;0.50;;;;;;;-0.50;91.25;99938.09;5045255;28;20025;-65
2023/03/30 02:05:18;;;;;;;0.50;0.50;;;;;;;-0.50;90.86;99925.34;5045273;28;20030;-65
2023/03/30 02:07:53;;;;;;;0.50;0.50;;;;;;;-0.49;90.14;99926.22;5047589;28;20025;-64
2023/03/30 02:10:23;;;;;;;0.57;0.57;;;;;;;-0.53;90.53;99925.25;5047515;28;20060;-64
2023/03/30 02:12:50;;;;;;;0.50;0.50;;;;;;;-0.63;90.60;99920.72;5047389;28;20026;-64
2023/03/30 02:15:17;;;;;;;0.60;0.60;;;;;;;-0.64;90.73;99907.09;5047542;28;20547;-65
2023/03/30 02:17:46;;;;;;;0.55;0.55;;;;;;;-0.69;91.23;99895.06;5047354;28;20068;-64
2023/03/30 02:20:15;;;;;;;0.50;0.50;;;;;;;-0.66;91.11;99908.78;5047473;28;20022;-66
2023/03/30 02:22:41;;;;;;;0.52;0.52;;;;;;;-0.56;91.07;99909.88;5047185;28;20049;-65
2023/03/30 02:25:07;;;;;;;0.50;0.50;;;;;;;-0.57;91.04;99913.25;5047075;28;20028;-66
2023/03/30 02:27:33;;;;;;;0.50;0.50;;;;;;;-0.54;90.75;99908.25;5047222;28;20108;-66
2023/03/30 02:29:59;;;;;;;0.50;0.50;;;;;;;-0.50;90.81;99912.59;5047275;28;20025;-65
2023/03/30 02:32:30;;;;;;;0.50;0.50;;;;;;;-0.55;90.58;99903.09;5046995;28;20087;-66
2023/03/30 02:35:26;;;;;;;0.60;0.60;;;;;;;-0.45;90.48;99907.66;5047526;28;20060;-65
2023/03/30 02:38:10;;;;;;;2.17;2.08;;;;;;;-0.53;90.27;99898.94;5047198;28;20030;-65
2023/03/30 02:41:17;;;;;;;0.50;0.50;;;;;;;-0.62;89.95;99894.41;5046841;28;20025;-65
2023/03/30 02:43:52;;;;;;;0.50;0.50;;;;;;;-0.55;90.48;99903.09;5045330;28;20063;-66
2023/03/30 02:46:24;;;;;;;0.55;0.55;;;;;;;-0.48;90.20;99886.31;5045572;28;20493;-65
2023/03/30 02:49:12;;;;;;;0.70;0.70;;;;;;;-0.51;89.58;99885.38;5045422;28;20040;-64
2023/03/30 02:51:47;;;;;;;0.60;0.60;;;;;;;-0.46;89.02;99866.81;5046739;28;20032;-65
2023/03/30 02:54:31;;;;;;;0.60;0.60;;;;;;;-0.48;89.11;99871.88;5046835;28;20029;-65
2023/03/30 02:56:59;;;;;;;0.50;0.50;;;;;;;-0.53;89.42;99876.81;5046604;28;20025;-65
2023/03/30 02:59:36;;;;;;;0.50;0.50;;;;;;;-0.52;89.73;99864.94;5046647;28;20371;-65
2023/03/30 03:02:16;;;;;;;0.50;0.50;;;;;;;-0.50;89.79;99869.25;5045716;28;20440;-66
2023/03/30 03:04:45;;;;;;;0.50;0.50;;;;;;;-0.51;89.84;99861.56;5045293;28;20546;-65
2023/03/30 03:07:12;;;;;;;0.60;0.60;;;;;;;-0.46;89.69;99864.25;5046530;28;20121;-65
2023/03/30 03:09:38;;;;;;;0.52;0.52;;;;;;;-0.45;90.07;99860.88;5044458;28;20088;-64
2023/03/30 03:12:04;;;;;;;0.60;0.60;;;;;;;-0.39;89.85;99863.59;5045021;28;20528;-65
2023/03/30 03:14:30;;;;;;;0.60;0.60;;;;;;;-0.44;89.70;99860.03;5045006;28;20499;-65
2023/03/30 03:16:55;;;;;;;0.50;0.50;;;;;;;-0.40;89.61;99849.97;5045327;28;20046;-64
2023/03/30 03:19:21;;;;;;;0.52;0.52;;;;;;;-0.41;89.84;99849.94;5046202;28;20075;-64
2023/03/30 03:21:47;;;;;;;0.50;0.50;;;;;;;-0.43;90.02;99852.44;5045967;28;20025;-65
2023/03/30 03:24:16;;;;;;;0.50;0.50;;;;;;;-0.32;89.82;99832.31;5046037;28;20033;-64
2023/03/30 03:26:42;;;;;;;0.50;0.50;;;;;;;-0.33;89.66;99845.91;5044228;28;20017;-65
2023/03/30 03:29:08;;;;;;;0.50;0.50;;;;;;;-0.22;88.27;99845.34;5044696;28;20022;-64
2023/03/30 03:31:34;;;;;;;0.50;0.50;;;;;;;-0.34;88.53;99828.88;5045832;28;20032;-65
2023/03/30 03:34:00;;;;;;;0.60;0.60;;;;;;;-0.28;88.51;99826.50;5046151;28;20017;-64
2023/03/30 03:36:25;;;;;;;0.50;0.50;;;;;;;-0.31;88.73;99828.97;5046022;28;20025;-65
2023/03/30 03:38:51;;;;;;;0.57;0.57;;;;;;;-0.29;88.83;99816.25;5045853;28;20029;-66
2023/03/30 03:41:16;;;;;;;0.50;0.50;;;;;;;-0.27;88.64;99818.00;5044212;28;20041;-66
2023/03/30 03:43:42;;;;;;;0.50;0.50;;;;;;;-0.28;88.19;99821.41;5045841;28;20021;-66
2023/03/30 03:46:08;;;;;;;0.55;0.55;;;;;;;-0.06;86.08;99808.31;5045656;28;20028;-66
2023/03/30 03:48:33;;;;;;;0.60;0.60;;;;;;;-0.18;85.81;99812.28;5045578;28;20025;-66
2023/03/30 03:50:58;;;;;;;0.50;0.50;;;;;;;-0.07;85.69;99796.38;5045493;28;20021;-66
2023/03/30 03:53:26;;;;;;;0.50;0.50;;;;;;;-0.34;86.29;99782.97;5045766;28;20562;-66
2023/03/30 03:55:52;;;;;;;0.57;0.57;;;;;;;-0.33;86.74;99800.00;5044277;28;20026;-66
2023/03/30 03:58:17;;;;;;;0.50;0.50;;;;;;;-0.30;87.02;99804.31;5044111;28;20028;-67
2023/03/30 04:00:43;;;;;;;0.50;0.50;;;;;;;-0.35;87.14;99796.53;5044215;28;20033;-66
2023/03/30 04:03:08;;;;;;;0.50;0.50;;;;;;;-0.49;87.72;99780.88;5045349;28;20026;-66
2023/03/30 04:05:34;;;;;;;0.50;0.50;;;;;;;-0.41;88.29;99791.25;5045586;28;20053;-66
2023/03/30 04:08:00;;;;;;;0.60;0.60;;;;;;;-0.39;88.17;99780.31;5045450;28;20026;-66
2023/03/30 04:10:26;;;;;;;0.50;0.50;;;;;;;-0.32;87.90;99783.84;5045341;28;20030;-67
2023/03/30 04:12:55;;;;;;;0.50;0.50;;;;;;;-0.31;88.02;99782.19;5045082;28;20030;-65
2023/03/30 04:15:20;;;;;;;0.50;0.50;;;;;;;-0.29;87.96;99789.03;5044026;28;20025;-66
2023/03/30 04:17:48;;;;;;;0.50;0.50;;;;;;;-0.36;88.22;99787.16;5045035;28;20053;-65
2023/03/30 04:20:14;;;;;;;0.52;0.52;;;;;;;-0.35;88.29;99778.66;5043781;28;20024;-65
2023/03/30 04:22:45;;;;;;;0.60;0.60;;;;;;;-0.30;88.32;99787.31;5045127;28;20025;-64
2023/03/30 04:25:13;;;;;;;0.60;0.60;;;;;;;-0.38;88.00;99786.25;5045331;28;20319;-64
2023/03/30 04:27:41;;;;;;;0.50;0.50;;;;;;;-0.43;88.45;99769.97;5045036;28;20060;-64
2023/03/30 04:30:08;;;;;;;0.60;0.60;;;;;;;-0.44;88.72;99758.03;5045052;28;20104;-67
2023/03/30 04:32:33;;;;;;;0.60;0.60;;;;;;;-0.46;88.95;99754.59;5044862;28;20060;-65
2023/03/30 04:35:02;;;;;;;0.50;0.50;;;;;;;-0.37;88.66;99757.38;5045145;28;20045;-64
2023/03/30 04:37:30;;;;;;;0.50;0.50;;;;;;;-0.20;87.69;99759.47;5044944;28;20029;-66
2023/03/30 04:39:57;;;;;;;0.50;0.50;;;;;;;-0.40;88.37;99762.41;5045049;28;20071;-65
2023/03/30 04:42:29;;;;;;;0.50;0.50;;;;;;;-0.45;88.54;99743.56;5043396;28;20025;-65
2023/03/30 04:44:58;;;;;;;0.60;0.60;;;;;;;-0.20;87.96;99759.47;5045238;28;20034;-65
2023/03/30 04:47:25;;;;;;;0.60;0.60;;;;;;;-0.39;88.51;99743.72;5045054;28;20124;-65
2023/03/30 04:49:51;;;;;;;0.60;0.60;;;;;;;-0.27;88.53;99741.47;5043261;28;20422;-64
2023/03/30 04:52:17;;;;;;;0.50;0.50;;;;;;;-0.42;88.96;99730.88;5024993;28;20046;-64
2023/03/30 04:54:42;;;;;;;0.50;0.50;;;;;;;-0.31;89.15;99723.50;5025088;28;20119;-63
2023/03/30 04:57:08;;;;;;;0.50;0.50;;;;;;;-0.23;88.85;99727.13;5025023;28;20497;-63
2023/03/30 04:59:33;;;;;;;0.50;0.50;;;;;;;-0.17;88.60;99719.59;5025070;28;20028;-67
2023/03/30 05:01:58;;;;;;;0.52;0.52;;;;;;;-0.24;88.66;99727.06;5024133;28;20056;-67
2023/03/30 05:04:24;;;;;;;0.60;0.60;;;;;;;-0.34;89.31;99714.09;5024911;28;20030;-62
2023/03/30 05:06:49;;;;;;;0.50;0.50;;;;;;;-0.32;89.60;99724.34;5024920;28;20037;-64
2023/03/30 05:09:15;;;;;;;0.52;0.52;;;;;;;-0.33;89.78;99718.38;5024842;28;20030;-64
2023/03/30 05:11:40;;;;;;;0.50;0.50;;;;;;;-0.16;89.40;99708.56;5024589;28;20037;-63
2023/03/30 05:14:06;;;;;;;0.50;0.50;;;;;;;-0.09;88.73;99712.13;5025229;28;20072;-66
2023/03/30 05:16:31;;;;;;;0.50;0.50;;;;;;;-0.08;88.76;99708.75;5027421;28;20540;-64
2023/03/30 05:18:57;;;;;;;0.50;0.50;;;;;;;-0.11;89.02;99703.56;5043148;28;20493;-64
2023/03/30 05:21:23;;;;;;;0.50;0.50;;;;;;;-0.13;89.05;99703.53;5044476;28;20051;-64
2023/03/30 05:23:48;;;;;;;0.60;0.60;;;;;;;-0.11;89.40;99700.19;5045522;28;20026;-65
2023/03/30 05:26:14;;;;;;;0.50;0.50;;;;;;;-0.02;89.04;99705.50;5048221;28;20064;-64
2023/03/30 05:28:41;;;;;;;0.60;0.60;;;;;;;-0.05;89.16;99698.59;5048031;28;20026;-64
2023/03/30 05:31:07;;;;;;;0.60;0.60;;;;;;;0.01;88.97;99703.00;5048102;28;20025;-64
2023/03/30 05:33:32;;;;;;;0.50;0.50;;;;;;;0.05;88.37;99701.41;5048258;28;20047;-65
2023/03/30 05:35:58;;;;;;;0.52;0.52;;;;;;;-0.02;88.90;99698.69;5048354;28;20031;-65
2023/03/30 05:38:23;;;;;;;0.50;0.50;;;;;;;0.03;89.17;99692.84;5047541;28;20022;-64
2023/03/30 05:40:52;;;;;;;0.50;0.50;;;;;;;0.05;88.83;99688.63;5046844;28;20026;-65
2023/03/30 05:43:18;;;;;;;0.50;0.50;;;;;;;0.06;89.07;99704.00;5046550;28;20081;-64
2023/03/30 05:45:44;;;;;;;0.60;0.60;;;;;;;0.05;88.99;99688.63;5047103;28;20029;-65
2023/03/30 05:48:09;;;;;;;0.60;0.60;;;;;;;0.02;89.49;99684.31;5048000;28;20064;-64
2023/03/30 05:50:35;;;;;;;0.50;0.50;;;;;;;0.17;88.57;99677.81;5048151;28;20041;-65
2023/03/30 05:53:01;;;;;;;0.50;0.50;;;;;;;0.08;88.73;99648.72;5047881;28;20032;-65
2023/03/30 05:55:26;;;;;;;0.60;0.60;;;;;;;0.13;88.54;99666.69;5047988;28;20025;-64
2023/03/30 05:57:52;;;;;;;0.50;0.50;;;;;;;0.23;87.94;99653.31;5047832;28;20385;-64
2023/03/30 06:00:20;;;;;;;0.50;0.50;;;;;;;0.16;87.86;99666.75;5046804;28;20231;-64
2023/03/30 06:02:45;;;;;;;0.50;0.50;;;;;;;0.08;88.54;99660.63;5047845;28;20040;-64
2023/03/30 06:05:11;;;;;;;0.50;0.50;;;;;;;0.04;89.05;99648.59;5047947;28;20025;-64
2023/03/30 06:07:36;;;;;;;0.50;0.50;;;;;;;0.06;89.17;99660.59;5047676;28;20026;-64
2023/03/30 06:10:03;;;;;;;0.50;0.50;;;;;;;0.02;89.50;99663.88;5047573;28;20108;-64
2023/03/30 06:12:30;;;;;;;0.50;0.50;;;;;;;0.14;89.30;99653.09;5047550;28;20021;-64
2023/03/30 06:14:55;;;;;;;0.50;0.50;;;;;;;0.13;89.31;99656.47;5047635;28;20045;-65
2023/03/30 06:17:21;;;;;;;0.50;0.50;;;;;;;0.10;89.69;99664.94;5047301;28;20053;-64
2023/03/30 06:19:47;;;;;;;0.50;0.50;;;;;;;0.23;89.36;99645.66;5047537;28;20022;-63
2023/03/30 06:22:12;;;;;;;0.50;0.50;;;;;;;0.17;89.90;99658.28;5047347;28;20047;-64
2023/03/30 06:24:38;;;;;;;0.50;0.50;;;;;;;0.27;90.10;99653.38;5047435;28;20040;-64
2023/03/30 06:27:03;;;;;;;0.50;0.50;;;;;;;0.36;89.48;99649.31;5047441;28;20025;-65
2023/03/30 06:29:29;;;;;;;0.50;0.50;;;;;;;0.36;89.09;99651.00;5047278;28;20104;-64
2023/03/30 06:31:55;;;;;;;0.50;0.50;;;;;;;0.43;88.35;99640.06;5047253;28;20025;-65
2023/03/30 06:34:20;;;;;;;0.50;0.50;;;;;;;0.36;88.79;99651.88;5045806;28;20029;-64
2023/03/30 06:36:47;;;;;;;0.50;0.50;;;;;;;0.39;88.57;99635.75;5045981;28;20100;-64
2023/03/30 06:39:13;;;;;;;0.50;0.50;;;;;;;0.28;89.55;99637.22;5047054;28;20028;-65
2023/03/30 06:41:39;;;;;;;0.50;0.50;;;;;;;0.30;89.65;99633.00;5046846;28;20037;-64
2023/03/30 06:44:05;;;;;;;0.50;0.50;;;;;;;0.34;90.04;99635.66;5045920;28;20049;-64
2023/03/30 06:46:32;;;;;;;0.50;0.50;;;;;;;0.49;89.03;99630.00;5047051;28;20075;-64
2023/03/30 06:48:57;;;;;;;0.50;0.50;;;;;;;0.42;89.30;99633.25;5046679;28;20478;-64
2023/03/30 06:51:23;;;;;;;0.50;0.50;;;;;;;0.41;89.69;99631.53;5046897;28;20036;-65
2023/03/30 06:53:49;;;;;;;0.50;0.50;;;;;;;0.33;89.53;99615.19;5046831;28;20033;-65
2023/03/30 06:56:14;;;;;;;0.50;0.50;;;;;;;0.35;89.92;99631.41;5046761;28;20077;-64
2023/03/30 06:58:40;;;;;;;0.50;0.50;;;;;;;0.38;90.03;99626.38;5045380;28;20017;-65
2023/03/30 07:01:10;;;;;;;0.50;0.50;;;;;;;0.39;90.01;99617.88;5046723;28;20029;-66
2023/03/30 07:03:36;;;;;;;0.50;0.50;;;;;;;0.45;90.04;99604.34;5046644;28;20051;-66
2023/03/30 07:06:03;;;;;;;0.50;0.50;;;;;;;0.49;89.95;99604.47;5046477;28;20025;-64
2023/03/30 07:08:28;;;;;;;0.50;0.50;;;;;;;0.63;89.57;99595.31;5046431;28;20028;-66
2023/03/30 07:10:54;;;;;;;0.47;0.47;;;;;;;0.62;89.38;99594.50;5046541;28;20026;-64
2023/03/30 07:13:20;;;;;;;0.50;0.50;;;;;;;0.67;88.99;99603.06;5046413;28;20049;-66
2023/03/30 07:15:45;;;;;;;0.50;0.50;;;;;;;0.63;89.05;99585.09;5046844;28;20037;-65
2023/03/30 07:18:12;;;;;;;0.50;0.50;;;;;;;0.77;88.58;99586.22;5046265;28;20077;-66
2023/03/30 07:20:37;;;;;;;0.50;0.50;;;;;;;0.65;89.19;99584.31;5045145;28;20025;-65
2023/03/30 07:23:03;;;;;;;0.60;0.60;;;;;;;0.60;89.61;99588.47;5046234;28;20085;-64
2023/03/30 07:25:28;;;;;;;0.50;0.50;;;;;;;0.69;89.40;99578.44;5044934;28;20030;-65
2023/03/30 07:27:54;;;;;;;0.50;0.50;;;;;;;0.70;89.61;99580.13;5045022;28;20426;-66
2023/03/30 07:30:21;;;;;;;0.50;0.50;;;;;;;0.74;89.36;99574.28;5044955;28;20470;-66
2023/03/30 07:32:48;;;;;;;0.50;0.50;;;;;;;0.69;89.06;99570.75;5045937;28;20029;-66
2023/03/30 07:35:14;;;;;;;0.50;0.50;;;;;;;0.89;88.51;99572.81;5044827;28;20063;-66
2023/03/30 07:37:39;;;;;;;0.50;0.50;;;;;;;0.83;88.51;99585.50;5046098;28;20081;-65
2023/03/30 07:40:09;;;;;;;0.50;0.50;;;;;;;0.72;88.24;99575.94;5046002;28;20052;-66
2023/03/30 07:42:35;;;;;;;0.50;0.50;;;;;;;0.77;88.83;99580.28;5044350;28;20085;-66
2023/03/30 07:45:02;;;;;;;0.50;0.50;;;;;;;0.62;89.67;99579.16;5044551;28;20021;-67
2023/03/30 07:47:27;;;;;;;0.50;0.50;;;;;;;0.73;89.29;99562.34;5045545;28;20108;-67
2023/03/30 07:49:53;;;;;;;0.50;0.50;;;;;;;0.83;88.74;99568.44;5045684;28;20028;-66
2023/03/30 07:52:18;;;;;;;0.60;0.60;;;;;;;0.65;89.48;99568.13;5044369;28;20021;-66
2023/03/30 07:54:43;;;;;;;0.50;0.50;;;;;;;0.71;89.65;99575.91;5045774;28;20067;-66
2023/03/30 07:57:10;;;;;;;0.52;0.52;;;;;;;0.83;89.30;99565.06;5044199;28;20105;-66
2023/03/30 07:59:36;;;;;;;0.50;0.50;;;;;;;0.70;89.84;99563.97;5045722;28;20089;-68
2023/03/30 08:02:01;;;;;;;0.50;0.50;;;;;;;0.71;90.05;99558.00;5045394;28;20032;-67
2023/03/30 08:04:27;;;;;;;0.50;0.50;;;;;;;0.80;89.84;99559.91;5045531;28;20029;-66
2023/03/30 08:06:52;;;;;;;0.50;0.50;;;;;;;0.81;90.05;99553.94;5044240;28;20501;-66
2023/03/30 08:09:18;;;;;;;0.50;0.50;;;;;;;0.73;90.07;99553.81;5045300;28;20022;-66
2023/03/30 08:11:44;;;;;;;0.50;0.50;;;;;;;0.73;89.99;99551.25;5045191;28;20027;-67
2023/03/30 08:14:10;;;;;;;0.50;0.50;;;;;;;0.87;88.95;99543.81;5045455;28;20017;-68
2023/03/30 08:16:35;;;;;;;0.57;0.57;;;;;;;0.67;89.63;99554.53;5045285;28;20072;-66
2023/03/30 08:19:01;;;;;;;0.60;0.60;;;;;;;0.88;89.50;99542.97;5045274;28;20025;-66
2023/03/30 08:21:26;;;;;;;0.50;0.50;;;;;;;0.72;89.84;99559.72;5045143;28;20021;-66
2023/03/30 08:23:54;;;;;;;0.50;0.50;;;;;;;0.70;90.36;99557.16;5045347;28;20473;-66
2023/03/30 08:26:20;;;;;;;0.50;0.50;;;;;;;0.78;90.62;99551.31;5044998;28;20160;-66
2023/03/30 08:28:46;;;;;;;0.60;0.60;;;;;;;0.80;90.64;99557.34;5045053;28;20037;-68
2023/03/30 08:31:11;;;;;;;0.50;0.50;;;;;;;0.79;90.33;99540.25;5045515;28;20040;-65
2023/03/30 08:33:37;;;;;;;0.95;0.95;;;;;;;0.83;89.54;99526.72;5045122;28;20489;-65
2023/03/30 08:36:03;;;;;;;0.50;0.50;;;;;;;0.91;89.78;99539.63;5043855;28;20045;-66
2023/03/30 08:38:29;;;;;;;0.50;0.50;;;;;;;0.98;89.13;99521.00;5045320;28;20092;-67
2023/03/30 08:40:54;;;;;;;0.50;0.50;;;;;;;0.77;89.50;99540.22;5045181;28;20033;-67
2023/03/30 08:43:26;;;;;;;0.50;0.50;;;;;;;0.76;89.82;99545.31;5045048;28;20026;-67
2023/03/30 08:45:51;;;;;;;0.45;0.45;;;;;;;0.95;89.25;99526.94;5045417;28;20101;-67
2023/03/30 08:48:23;;;;;;;0.50;0.50;;;;;;;0.69;89.29;99529.88;5045112;28;20037;-66
2023/03/30 08:50:53;;;;;;;0.60;0.60;;;;;;;0.73;89.64;99526.56;5045253;28;20030;-66
2023/03/30 08:53:19;;;;;;;0.60;0.60;;;;;;;0.68;89.99;99533.28;5044987;28;20164;-66
2023/03/30 08:56:03;;;;;;;0.60;0.60;;;;;;;0.90;88.37;99538.75;5044875;28;20159;-67
2023/03/30 08:58:33;;;;;;;0.50;0.50;;;;;;;0.74;89.60;99517.19;5045279;28;20025;-66
2023/03/30 09:01:14;;;;;;;0.50;0.50;;;;;;;0.65;90.03;99522.13;5048920;28;20033;-66
2023/03/30 09:03:47;;;;;;;0.50;0.50;;;;;;;0.62;89.57;99522.97;5049032;28;20101;-65
2023/03/30 09:06:23;;;;;;;0.50;0.50;;;;;;;0.56;90.10;99520.28;5047727;28;20500;-66
2023/03/30 09:08:50;;;;;;;0.50;0.50;;;;;;;0.56;90.40;99512.63;5048473;28;20026;-65
2023/03/30 09:11:27;;;;;;;0.50;0.50;;;;;;;0.67;89.81;99500.88;5047561;28;20033;-65
2023/03/30 09:13:54;;;;;;;0.50;0.50;;;;;;;0.72;89.15;99524.81;5047894;28;20238;-67
2023/03/30 09:16:20;;;;;;;0.60;0.60;;;;;;;0.49;89.92;99506.53;5048312;28;20026;-63
2023/03/30 09:18:53;;;;;;;0.60;0.60;;;;;;;0.55;90.02;99493.88;5048842;28;20025;-64
2023/03/30 09:21:22;;;;;;;0.52;0.52;;;;;;;0.46;90.37;99512.44;5048656;28;20033;-63
2023/03/30 09:23:49;;;;;;;0.50;0.50;;;;;;;0.55;90.60;99518.56;5048660;28;20022;-64
2023/03/30 09:26:28;;;;;;;0.60;0.60;;;;;;;0.58;90.02;99495.63;5048628;28;20056;-64
2023/03/30 09:29:07;;;;;;;0.50;0.50;;;;;;;0.58;89.95;99488.81;5048599;28;20029;-64
2023/03/30 09:31:40;;;;;;;2.25;2.15;;;;;;;0.54;90.19;99478.53;5048282;28;20021;-64
2023/03/30 09:34:38;;;;;;;0.60;0.60;;;;;;;0.47;90.90;99477.56;5047203;28;20029;-64
2023/03/30 09:37:08;;;;;;;0.50;0.50;;;;;;;0.47;90.73;99475.88;5048656;28;20025;-64
2023/03/30 09:39:35;;;;;;;0.50;0.50;;;;;;;0.41;91.03;99487.66;5048646;28;20112;-63
2023/03/30 09:42:17;;;;;;;0.60;0.60;;;;;;;0.47;91.06;99477.56;5048258;28;20025;-62
2023/03/30 09:44:57;;;;;;;0.52;0.52;;;;;;;0.47;90.00;99473.31;5048404;28;20022;-62
2023/03/30 09:47:32;;;;;;;0.60;0.60;;;;;;;0.42;91.07;99472.38;5048255;28;20028;-62
2023/03/30 09:50:00;;;;;;;0.50;0.50;;;;;;;0.36;91.29;99460.38;5048239;28;20116;-63
2023/03/30 09:52:28;;;;;;;0.50;0.50;;;;;;;0.33;91.58;99454.34;5048103;28;20059;-62
2023/03/30 09:54:54;;;;;;;0.50;0.50;;;;;;;0.23;91.78;99468.63;5046683;28;20036;-63
2023/03/30 09:57:31;;;;;;;0.50;0.50;;;;;;;0.18;92.03;99471.09;5047812;28;20385;-63
2023/03/30 09:59:59;;;;;;;0.60;0.60;;;;;;;0.18;92.21;99460.88;5047759;28;20032;-63
2023/03/30 10:02:27;;;;;;;0.60;0.60;;;;;;;0.18;92.41;99447.25;5047657;28;20025;-63
2023/03/30 10:04:59;;;;;;;0.60;0.60;;;;;;;0.43;91.43;99440.88;5046878;28;20017;-62
2023/03/30 10:07:33;;;;;;;0.55;0.55;;;;;;;0.47;91.14;99440.13;5046297;28;20025;-63
2023/03/30 10:10:11;;;;;;;0.50;0.50;;;;;;;0.34;92.28;99422.84;5045670;28;20036;-63
2023/03/30 10:12:37;;;;;;;0.60;0.60;;;;;;;0.36;92.73;99428.84;5047368;28;20028;-62
2023/03/30 10:15:03;;;;;;;0.50;0.50;;;;;;;0.52;92.68;99424.00;5047470;28;20093;-61
2023/03/30 10:17:30;;;;;;;0.50;0.50;;;;;;;0.43;92.42;99433.22;5047114;28;20088;-62
2023/03/30 10:20:37;;;;;;;0.60;0.60;;;;;;;0.44;93.24;99409.41;5047293;28;20037;-62
2023/03/30 10:23:14;;;;;;;0.50;0.50;;;;;;;0.35;93.03;99412.66;5047400;28;20089;-61
2023/03/30 10:25:41;;;;;;;0.50;0.50;;;;;;;0.27;93.40;99401.47;5047308;28;20021;-62
2023/03/30 10:28:20;;;;;;;0.50;0.50;;;;;;;0.24;93.51;99409.06;5045799;28;20025;-61
2023/03/30 10:31:15;;;;;;;0.50;0.50;;;;;;;0.26;93.93;99415.06;5047272;28;20029;-62
2023/03/30 10:33:43;;;;;;;0.50;0.50;;;;;;;0.28;94.15;99413.41;5038449;28;20037;-62
2023/03/30 10:36:12;;;;;;;0.50;0.50;;;;;;;0.31;94.42;99402.38;5046944;28;20025;-62
2023/03/30 10:38:39;;;;;;;0.57;0.57;;;;;;;0.46;94.57;99400.06;5047301;28;20025;-63
2023/03/30 10:41:11;;;;;;;0.50;0.50;;;;;;;0.50;94.40;99390.78;5047202;28;20022;-63
2023/03/30 10:43:38;;;;;;;0.50;0.50;;;;;;;0.56;94.13;99390.03;5045844;28;20052;-62
2023/03/30 10:46:23;;;;;;;0.60;0.60;;;;;;;0.47;94.25;99376.28;5047053;28;20028;-63
2023/03/30 10:49:30;;;;;;;0.50;0.50;;;;;;;0.65;93.15;99377.41;5047012;28;20021;-63
2023/03/30 10:52:08;;;;;;;0.50;0.50;;;;;;;0.73;93.18;99375.81;5047081;28;20025;-62
2023/03/30 10:55:11;;;;;;;0.50;0.50;;;;;;;0.71;93.90;99359.59;5047087;28;20093;-62
2023/03/30 10:57:56;;;;;;;0.50;0.50;;;;;;;0.61;94.45;99356.03;5046568;28;20063;-63
2023/03/30 11:01:06;;;;;;;0.60;0.60;;;;;;;0.72;94.37;99360.44;5047165;28;20017;-63
2023/03/30 11:03:32;;;;;;;0.50;0.50;;;;;;;0.71;94.68;99353.63;5027349;28;20108;-63
2023/03/30 11:06:06;;;;;;;0.50;0.50;;;;;;;0.68;94.81;99346.78;5046827;28;20031;-61
2023/03/30 11:08:35;;;;;;;0.50;0.50;;;;;;;0.65;95.13;99362.06;5046550;28;20026;-62
2023/03/30 11:11:02;;;;;;;0.50;0.50;;;;;;;0.67;95.29;99362.94;5046818;28;20112;-62
2023/03/30 11:13:35;;;;;;;0.50;0.50;;;;;;;0.67;95.42;99352.72;5046410;28;20488;-62
2023/03/30 11:16:30;;;;;;;0.50;0.50;;;;;;;0.68;95.63;99339.13;5045348;28;20036;-62
2023/03/30 11:19:04;;;;;;;0.50;0.50;;;;;;;0.73;95.88;99342.59;5038674;28;20079;-61
2023/03/30 11:21:37;;;;;;;0.40;0.40;;;;;;;0.80;96.02;99335.03;5045734;28;20025;-61
2023/03/30 11:24:13;;;;;;;0.50;0.50;;;;;;;0.90;96.16;99334.31;5045082;28;20026;-62
2023/03/30 11:26:50;;;;;;;0.50;0.50;;;;;;;1.14;94.40;99324.38;5045125;28;20041;-61
2023/03/30 11:29:35;;;;;;;0.50;0.50;;;;;;;1.07;94.56;99321.75;5044843;28;20089;-61
2023/03/30 11:32:24;;;;;;;0.50;0.50;;;;;;;1.03;95.10;99334.47;5045382;28;20025;-62
2023/03/30 11:35:10;;;;;;;0.50;0.50;;;;;;;1.00;95.09;99319.97;5045289;28;20461;-62
2023/03/30 11:37:51;;;;;;;0.50;0.50;;;;;;;0.95;95.61;99307.13;5046047;28;20099;-62
2023/03/30 11:40:42;;;;;;;0.57;0.57;;;;;;;1.00;95.62;99309.72;5046139;28;20494;-63
2023/03/30 11:43:12;;;;;;;0.50;0.50;;;;;;;1.02;95.86;99312.31;5040829;28;20042;-62
2023/03/30 11:45:59;;;;;;;0.50;0.50;;;;;;;1.03;95.53;99294.44;5044978;28;20026;-62
2023/03/30 11:49:10;;;;;;;0.50;0.50;;;;;;;1.06;94.90;99304.69;5045812;28;20025;-63
2023/03/30 11:52:03;;;;;;;0.50;0.50;;;;;;;1.09;95.24;99299.63;5035083;28;20037;-63
2023/03/30 11:54:46;;;;;;;0.52;0.52;;;;;;;1.15;94.97;99290.31;5030442;28;20053;-63